Sim-Planet VA

Sim-Planet Nouvel Horizon. By: Anthony Pay
Since 2020.




 METAR ET TAF INFORMATION
METAR FOR GCFV
ADDS - METARS form results

(2059 UTC 28 January 2022)
Data provider http://aviationweather.gov/metar/data/
 
METAR text: GCFV 282030Z 02014KT 8000 FEW030 18/13 Q1016
Conditions at: GCFV (FUERTEVENTURA AR, ES) observed 2030 UTC 28 January 2022
Temperature: 18.0°C (64°F)
Dewpoint: 13.0°C (55°F) [RH = 73%]
Pressure (altimeter): 30.00 inches Hg (1016.0 mb)
Winds: from the NNE (20 degrees) at 16 MPH (14 knots; 7.2 m/s)
Visibility: 5 miles ( 8 km)
Ceiling: at least 12,000 feet AGL
Clouds: few clouds at 3000 feet AGL
Weather: no significant weather observed at this time

METAR text: GCFV 282000Z 03015KT 7000 FEW030 18/14 Q1016
Conditions at: GCFV (FUERTEVENTURA AR, ES) observed 2000 UTC 28 January 2022
Temperature: 18.0°C (64°F)
Dewpoint: 14.0°C (57°F) [RH = 77%]
Pressure (altimeter): 30.00 inches Hg (1016.0 mb)
Winds: from the NNE (30 degrees) at 17 MPH (15 knots; 7.7 m/s)
Visibility: 4 miles ( 7 km)
Ceiling: at least 12,000 feet AGL
Clouds: few clouds at 3000 feet AGL
Weather: no significant weather observed at this time

Forecast for: GCFV (FUERTEVENTURA AR, ES)
Text: TAF GCFV 282000Z 2821/2921 36009KT CAVOK TX20/2914Z TN15/2906Z
Forecast period: 2100 UTC 28 January 2022 to 2100 UTC 29 January 2022
Forecast type: FROM: standard forecast or significant change
Winds: from the N (360 degrees) at 10 MPH (9 knots; 4.6 m/s)
Visibility: 6 or more miles (10+ km)
Ceiling: unknown
Clouds: missing
Weather: no significant weather forecast for this period
Text: PROB40
Forecast period: 2100 UTC 28 January 2022 to 2100 UTC 29 January 2022
Forecast type: TEMPORARY: The following changes expected for less than half the time period
Visibility: 2.80 miles (4.51 km)
Ceiling: unknown
Clouds: missing
Weather: HZ  (haze)

 AÉROPORT DE AÉROPORT

 INFORMATIONS DE PISTE
Piste 01 Longueur de la piste 7874 ft Largeur de la piste 148 ft
Élévation de la piste 37 ft Seuil de la piste déplacés 0 ft Runway heading 2
Piste 19 Longueur de la piste 7874 ft Largeur de la piste 148 ft
Élévation de la piste 75 ft Seuil de la piste déplacés 0 ft Runway heading 182

 AÉROPORT FRÉQUENCES
Type APP Nom CANARIAS A Féquence 129.3 MHZ
Type ATIS Nom ATIS Féquence 118.65 MHZ
Type GND Nom GND Féquence 121.7 MHZ
Type TWR Nom TWR Féquence 118.5 MHZ

 SIDA DE NAVIGATION
Type VOR-DME Nom Fuerteventura Féquence 114100 KHZ

Nos Partenaires